createdAt,value
2023-05-11T00:01:56.617Z,5.60
2023-05-11T00:04:25.597Z,6.20
2023-05-11T00:06:56.432Z,5.80
2023-05-11T00:09:25.723Z,6.80
2023-05-11T00:11:54.995Z,6.20
2023-05-11T00:14:23.475Z,6.00
2023-05-11T00:16:51.851Z,6.60
2023-05-11T00:19:20.125Z,6.30
2023-05-11T00:21:48.399Z,6.50
2023-05-11T00:24:16.891Z,6.30
2023-05-11T00:26:45.058Z,5.80
2023-05-11T00:29:13.325Z,6.80
2023-05-11T00:31:41.662Z,6.20
2023-05-11T00:34:10.285Z,6.50
2023-05-11T00:36:41.259Z,6.60
2023-05-11T00:39:12.273Z,6.00
2023-05-11T00:41:40.643Z,6.50
2023-05-11T00:44:08.917Z,6.70
2023-05-11T00:46:38.174Z,6.60
2023-05-11T00:49:07.411Z,6.30
2023-05-11T00:51:36.905Z,6.70
2023-05-11T00:54:05.696Z,5.90
2023-05-11T00:56:34.288Z,6.90
2023-05-11T00:59:02.860Z,6.40
2023-05-11T01:01:31.240Z,6.70
2023-05-11T01:03:59.829Z,6.70
2023-05-11T01:06:54.627Z,6.90
2023-05-11T01:09:53.924Z,6.20
2023-05-11T01:12:32.240Z,6.80
2023-05-11T01:15:12.086Z,7.00
2023-05-11T01:17:50.475Z,5.80
2023-05-11T01:20:30.365Z,6.10
2023-05-11T01:23:08.147Z,6.30
2023-05-11T01:25:51.472Z,6.00
2023-05-11T01:28:44.933Z,6.90
2023-05-11T01:31:16.285Z,6.60
2023-05-11T01:34:08.827Z,6.40
2023-05-11T01:36:43.147Z,6.40
2023-05-11T01:39:14.296Z,7.30
2023-05-11T01:41:52.080Z,7.00
2023-05-11T01:44:24.150Z,6.80
2023-05-11T01:46:53.544Z,6.70
2023-05-11T01:49:22.237Z,6.70
2023-05-11T01:51:52.258Z,6.80
2023-05-11T01:54:21.551Z,6.50
2023-05-11T01:56:51.868Z,6.50
2023-05-11T01:59:20.856Z,6.80
2023-05-11T02:01:49.255Z,6.70
2023-05-11T02:04:20.588Z,6.70
2023-05-11T02:06:50.092Z,6.80
2023-05-11T02:09:19.285Z,6.70
2023-05-11T02:11:49.096Z,6.60
2023-05-11T02:14:20.275Z,6.30
2023-05-11T02:16:50.664Z,6.20
2023-05-11T02:19:21.866Z,6.30
2023-05-11T02:21:53.288Z,6.70
2023-05-11T02:24:24.652Z,6.60
2023-05-11T02:26:53.396Z,7.10
2023-05-11T02:29:22.178Z,6.60
2023-05-11T02:32:16.159Z,7.10
2023-05-11T02:34:55.798Z,7.00
2023-05-11T02:37:26.721Z,7.00
2023-05-11T02:40:01.163Z,7.00
2023-05-11T02:42:35.266Z,6.90
2023-05-11T02:45:09.512Z,7.30
2023-05-11T02:47:48.110Z,6.70
2023-05-11T02:50:24.445Z,5.80
2023-05-11T02:52:56.125Z,7.00
2023-05-11T02:55:26.019Z,5.90
2023-05-11T02:57:54.933Z,7.40
2023-05-11T03:00:23.555Z,7.30
2023-05-11T03:02:52.460Z,7.60
2023-05-11T03:05:21.963Z,7.10
2023-05-11T03:07:52.429Z,6.70
2023-05-11T03:10:22.667Z,7.10
2023-05-11T03:12:51.538Z,7.70
2023-05-11T03:15:22.064Z,6.50
2023-05-11T03:17:52.640Z,7.10
2023-05-11T03:20:23.438Z,6.70
2023-05-11T03:22:53.041Z,6.10
2023-05-11T03:25:22.574Z,6.70
2023-05-11T03:27:53.478Z,6.70
2023-05-11T03:30:23.597Z,7.20
2023-05-11T03:32:53.171Z,5.90
2023-05-11T03:35:26.092Z,6.00
2023-05-11T03:37:57.963Z,6.10
2023-05-11T03:40:31.749Z,5.00
2023-05-11T03:43:04.226Z,5.20
2023-05-11T03:45:34.054Z,5.70
2023-05-11T03:48:06.519Z,4.70
2023-05-11T03:50:35.486Z,4.10
2023-05-11T03:53:05.527Z,4.70
2023-05-11T03:55:34.412Z,4.00
2023-05-11T03:58:11.208Z,4.20
2023-05-11T04:00:41.506Z,3.90
2023-05-11T04:03:10.617Z,4.10
2023-05-11T04:05:41.842Z,3.90
2023-05-11T04:08:13.620Z,4.20
2023-05-11T04:10:41.887Z,3.50
2023-05-11T04:13:11.488Z,3.50
2023-05-11T04:15:39.830Z,3.80
2023-05-11T04:18:08.934Z,3.30
2023-05-11T04:20:38.571Z,3.60
2023-05-11T04:23:08.414Z,3.40
2023-05-11T04:25:39.509Z,3.40
2023-05-11T04:28:08.200Z,4.20
2023-05-11T04:30:36.742Z,3.90
2023-05-11T04:33:06.123Z,3.70
2023-05-11T04:35:39.365Z,4.20
2023-05-11T04:38:12.358Z,4.20
2023-05-11T04:40:41.042Z,3.80
2023-05-11T04:43:10.853Z,3.30
2023-05-11T04:45:41.391Z,2.80
2023-05-11T04:48:10.218Z,3.60
2023-05-11T04:50:39.012Z,3.50
2023-05-11T04:53:07.839Z,3.50
2023-05-11T04:55:36.732Z,3.50
2023-05-11T04:58:05.629Z,3.50
2023-05-11T05:00:36.977Z,3.30
2023-05-11T05:03:05.383Z,3.40
2023-05-11T05:05:34.346Z,4.00
2023-05-11T05:08:02.825Z,3.70
2023-05-11T05:10:31.505Z,3.40
2023-05-11T05:13:00.109Z,3.80
2023-05-11T05:15:29.998Z,3.40
2023-05-11T05:17:59.355Z,3.10
2023-05-11T05:20:56.661Z,2.40
2023-05-11T05:23:27.087Z,3.20
2023-05-11T05:26:20.357Z,3.30
2023-05-11T05:29:14.318Z,3.70
2023-05-11T05:31:48.745Z,3.30
2023-05-11T05:34:17.853Z,3.70
2023-05-11T05:36:46.398Z,2.60
2023-05-11T05:39:15.388Z,2.60
2023-05-11T05:41:43.757Z,2.70
2023-05-11T05:44:12.429Z,2.50
2023-05-11T05:46:41.305Z,2.30
2023-05-11T05:49:21.873Z,2.40
2023-05-11T05:52:16.396Z,4.80
2023-05-11T05:54:46.924Z,2.40
2023-05-11T05:57:26.147Z,12.50
2023-05-11T05:59:55.497Z,2.50
2023-05-11T06:02:31.413Z,1.60
2023-05-11T06:05:06.350Z,1.70
2023-05-11T06:07:40.942Z,1.70
2023-05-11T06:10:34.577Z,2.20
2023-05-11T06:13:58.802Z,1.70
2023-05-11T06:16:28.408Z,1.90
2023-05-11T06:18:57.486Z,1.80
2023-05-11T06:21:26.937Z,1.90
2023-05-11T06:23:55.737Z,2.10
2023-05-11T06:26:26.037Z,5.00
2023-05-11T06:28:54.727Z,2.00
2023-05-11T06:31:24.501Z,1.70
2023-05-11T06:33:53.634Z,1.70
2023-05-11T06:36:26.018Z,1.80
2023-05-11T06:38:54.691Z,1.90
2023-05-11T06:41:23.272Z,1.70
2023-05-11T06:43:53.087Z,1.90
2023-05-11T06:46:37.545Z,2.00
2023-05-11T06:49:09.362Z,1.30
2023-05-11T06:51:37.837Z,1.70
2023-05-11T06:54:09.069Z,1.90
2023-05-11T06:56:38.312Z,2.30
2023-05-11T06:59:07.614Z,2.00
2023-05-11T07:01:36.150Z,2.20
2023-05-11T07:04:05.455Z,2.20
2023-05-11T07:06:34.081Z,2.50
2023-05-11T07:09:03.806Z,2.20
2023-05-11T07:11:32.578Z,2.20
2023-05-11T07:14:00.751Z,1.80
2023-05-11T07:16:29.077Z,2.50
2023-05-11T07:18:58.272Z,2.00
2023-05-11T07:21:26.805Z,1.80
2023-05-11T07:23:55.570Z,1.60
2023-05-11T07:26:24.188Z,1.80
2023-05-11T07:28:52.889Z,2.30
2023-05-11T07:31:21.489Z,2.10
2023-05-11T07:33:50.124Z,2.10
2023-05-11T07:36:18.857Z,1.80
2023-05-11T07:38:47.283Z,2.70
2023-05-11T07:41:16.500Z,2.60
2023-05-11T07:43:45.160Z,1.90
2023-05-11T07:46:13.693Z,1.90
2023-05-11T07:48:42.140Z,1.80
2023-05-11T07:51:11.136Z,2.30
2023-05-11T07:53:40.011Z,1.80
2023-05-11T07:56:08.702Z,2.00
2023-05-11T07:58:37.440Z,2.00
2023-05-11T08:01:06.683Z,2.00
2023-05-11T08:03:35.107Z,2.20
2023-05-11T08:06:05.103Z,1.90
2023-05-11T08:08:33.657Z,2.00
2023-05-11T08:11:02.354Z,2.00
2023-05-11T08:13:30.821Z,1.80
2023-05-11T08:15:59.323Z,1.80
2023-05-11T08:18:27.728Z,1.50
2023-05-11T08:20:56.571Z,2.20
2023-05-11T08:23:25.046Z,2.40
2023-05-11T08:25:55.784Z,2.00
2023-05-11T08:28:24.363Z,1.70
2023-05-11T08:30:58.250Z,1.60
2023-05-11T08:35:59.542Z,2.20
2023-05-11T08:38:27.804Z,2.00
2023-05-11T08:40:56.292Z,1.80
2023-05-11T08:43:26.513Z,2.30
2023-05-11T08:46:01.261Z,2.00
2023-05-11T08:48:31.067Z,2.80
2023-05-11T08:50:59.968Z,2.50
2023-05-11T08:53:28.525Z,1.90
2023-05-11T08:56:01.614Z,2.30
2023-05-11T08:58:31.549Z,1.90
2023-05-11T09:01:00.590Z,1.90
2023-05-11T09:03:30.842Z,2.20
2023-05-11T09:06:01.052Z,2.00
2023-05-11T09:08:32.606Z,2.00
2023-05-11T09:11:01.506Z,2.40
2023-05-11T09:13:31.001Z,2.20
2023-05-11T09:15:59.774Z,2.20
2023-05-11T09:18:28.658Z,2.60
2023-05-11T09:20:58.388Z,2.40
2023-05-11T09:23:28.042Z,2.10
2023-05-11T09:25:56.495Z,2.80
2023-05-11T09:28:26.954Z,2.20
2023-05-11T09:30:55.871Z,2.30
2023-05-11T09:33:26.467Z,2.40
2023-05-11T09:35:54.851Z,2.60
2023-05-11T09:38:25.690Z,2.10
2023-05-11T09:40:57.124Z,2.60
2023-05-11T09:43:30.756Z,2.10
2023-05-11T09:46:07.828Z,2.70
2023-05-11T09:48:36.404Z,2.40
2023-05-11T09:51:07.750Z,2.30
2023-05-11T09:53:46.337Z,2.60
2023-05-11T09:56:16.269Z,2.60
2023-05-11T09:58:53.049Z,2.40
2023-05-11T10:01:33.070Z,2.70
2023-05-11T10:04:21.361Z,2.20
2023-05-11T10:06:53.698Z,2.00
2023-05-11T10:09:26.900Z,3.30
2023-05-11T10:11:56.855Z,2.70
2023-05-11T10:14:27.642Z,2.50
2023-05-11T10:16:58.586Z,2.70
2023-05-11T10:19:27.763Z,2.40
2023-05-11T10:21:57.847Z,2.00
2023-05-11T10:24:27.420Z,2.00
2023-05-11T10:26:57.654Z,2.20
2023-05-11T10:29:26.939Z,2.40
2023-05-11T10:31:58.403Z,2.50
2023-05-11T10:34:29.440Z,2.70
2023-05-11T10:37:00.976Z,2.80
2023-05-11T10:39:32.620Z,2.60
2023-05-11T10:42:17.193Z,2.90
2023-05-11T10:45:19.236Z,2.90
2023-05-11T10:48:07.670Z,2.50
2023-05-11T10:51:07.609Z,2.60
2023-05-11T10:54:00.870Z,2.90
2023-05-11T10:57:07.365Z,1.90
2023-05-11T11:00:09.899Z,2.60
2023-05-11T11:02:39.223Z,2.60
2023-05-11T11:05:10.164Z,2.50
2023-05-11T11:08:03.993Z,2.10
2023-05-11T11:10:35.280Z,2.40
2023-05-11T11:13:12.147Z,2.40
2023-05-11T11:15:55.805Z,2.50
2023-05-11T11:18:26.350Z,2.50
2023-05-11T11:20:57.150Z,2.30
2023-05-11T11:23:41.822Z,2.00
2023-05-11T11:26:17.451Z,1.70
2023-05-11T11:28:54.821Z,2.50
2023-05-11T11:31:31.894Z,2.60
2023-05-11T11:34:29.904Z,2.20
2023-05-11T11:36:59.106Z,2.00
2023-05-11T11:39:47.333Z,2.90
2023-05-11T11:42:18.793Z,2.60
2023-05-11T11:44:47.062Z,2.10
2023-05-11T11:47:23.009Z,2.10
2023-05-11T11:49:53.753Z,2.80
2023-05-11T11:52:28.381Z,2.60
2023-05-11T11:55:01.661Z,2.40
2023-05-11T11:57:30.261Z,2.40
2023-05-11T12:00:07.248Z,2.50
2023-05-11T12:02:46.298Z,2.50
2023-05-11T12:05:20.168Z,2.50
2023-05-11T12:07:51.643Z,2.30
2023-05-11T12:10:21.954Z,2.30
2023-05-11T12:12:55.183Z,2.10
2023-05-11T12:15:29.730Z,2.40
2023-05-11T12:17:58.582Z,2.80
2023-05-11T12:20:26.910Z,2.60
2023-05-11T12:22:55.287Z,2.20
2023-05-11T12:25:24.887Z,2.30
2023-05-11T12:28:03.507Z,2.50
2023-05-11T12:30:34.049Z,2.20
2023-05-11T12:33:04.844Z,3.30
2023-05-11T12:35:35.212Z,2.40
2023-05-11T12:38:03.887Z,2.80
2023-05-11T12:40:33.081Z,2.30
2023-05-11T12:43:02.075Z,2.50
2023-05-11T12:45:30.862Z,2.50
2023-05-11T12:47:59.686Z,2.50
2023-05-11T12:50:28.137Z,2.30
2023-05-11T12:53:13.394Z,2.20
2023-05-11T12:55:42.209Z,2.20
2023-05-11T12:58:18.791Z,2.50
2023-05-11T13:00:55.304Z,2.40
2023-05-11T13:03:24.429Z,2.40
2023-05-11T13:06:03.863Z,2.20
2023-05-11T13:08:32.739Z,2.70
2023-05-11T13:11:26.088Z,2.20
2023-05-11T13:13:57.127Z,2.40
2023-05-11T13:16:34.110Z,2.40
2023-05-11T13:19:05.380Z,2.40
2023-05-11T13:21:33.958Z,2.50
2023-05-11T13:24:04.377Z,2.60
2023-05-11T13:26:32.976Z,2.30
2023-05-11T13:29:10.730Z,2.60
2023-05-11T13:31:51.145Z,2.10
2023-05-11T13:34:20.910Z,2.70
2023-05-11T13:36:49.925Z,2.80
2023-05-11T13:39:18.300Z,2.00
2023-05-11T13:41:46.843Z,2.40
2023-05-11T13:44:15.163Z,2.40
2023-05-11T13:46:43.857Z,2.60
2023-05-11T13:49:12.940Z,2.00
2023-05-11T13:51:41.215Z,2.40
2023-05-11T13:54:09.594Z,5.00
2023-05-11T13:56:37.864Z,3.60
2023-05-11T13:59:06.041Z,2.90
2023-05-11T14:01:34.359Z,3.90
2023-05-11T14:04:02.695Z,3.10
2023-05-11T14:06:34.723Z,2.70
2023-05-11T14:09:03.144Z,2.30
2023-05-11T14:11:31.412Z,2.20
2023-05-11T14:13:59.477Z,2.50
2023-05-11T14:16:27.763Z,3.10
2023-05-11T14:18:55.980Z,3.10
2023-05-11T14:21:24.318Z,2.50
2023-05-11T14:24:09.937Z,2.90
2023-05-11T14:26:41.237Z,2.30
2023-05-11T14:29:09.616Z,3.00
2023-05-11T14:31:39.036Z,3.00
2023-05-11T14:34:07.441Z,2.40
2023-05-11T14:36:36.587Z,2.80
2023-05-11T14:39:04.871Z,2.90
2023-05-11T14:41:33.562Z,2.60
2023-05-11T14:44:01.927Z,2.90
2023-05-11T14:46:30.531Z,3.40
2023-05-11T14:48:59.110Z,2.60
2023-05-11T14:51:27.490Z,2.50
2023-05-11T14:53:55.742Z,3.10
2023-05-11T14:56:24.120Z,2.80
2023-05-11T14:58:52.390Z,3.00
2023-05-11T15:01:20.823Z,2.80
2023-05-11T15:03:49.360Z,2.70
2023-05-11T15:06:21.634Z,3.20
2023-05-11T15:11:18.790Z,3.00
2023-05-11T15:13:49.929Z,2.90
2023-05-11T15:16:18.174Z,3.10
2023-05-11T15:18:46.430Z,2.50
2023-05-11T15:21:14.755Z,3.90
2023-05-11T15:23:43.233Z,2.80
2023-05-11T15:26:11.509Z,2.70
2023-05-11T15:28:39.988Z,3.10
2023-05-11T15:31:08.526Z,3.00
2023-05-11T15:33:37.005Z,3.10
2023-05-11T15:36:13.131Z,2.30
2023-05-11T15:38:42.773Z,3.30
2023-05-11T15:41:11.138Z,3.20
2023-05-11T15:43:39.575Z,2.20
2023-05-11T15:46:07.934Z,2.70
2023-05-11T15:48:36.455Z,3.70
2023-05-11T15:51:04.908Z,3.30
2023-05-11T15:53:33.496Z,3.30
2023-05-11T15:56:01.767Z,2.80
2023-05-11T15:58:30.072Z,3.10
2023-05-11T16:00:58.815Z,3.30
2023-05-11T16:03:27.305Z,3.40
2023-05-11T16:05:55.788Z,2.50
2023-05-11T16:08:23.963Z,3.40
2023-05-11T16:10:52.856Z,3.00
2023-05-11T16:13:21.426Z,3.10
2023-05-11T16:15:50.125Z,3.00
2023-05-11T16:18:20.039Z,5.90
2023-05-11T16:20:48.306Z,3.10
2023-05-11T16:23:16.486Z,3.00
2023-05-11T16:25:44.752Z,3.10
2023-05-11T16:28:13.449Z,2.70
2023-05-11T16:30:41.718Z,2.90
2023-05-11T16:33:10.098Z,3.30
2023-05-11T16:35:38.570Z,2.90
2023-05-11T16:38:06.955Z,3.00
2023-05-11T16:40:35.439Z,2.20
2023-05-11T16:43:03.707Z,3.90
2023-05-11T16:45:31.773Z,3.30
2023-05-11T16:48:00.054Z,3.40
2023-05-11T16:50:28.626Z,3.60
2023-05-11T16:52:56.910Z,3.00
2023-05-11T16:55:25.196Z,2.50
2023-05-11T16:57:53.561Z,3.20
2023-05-11T17:00:22.244Z,3.00
2023-05-11T17:02:51.050Z,4.30
2023-05-11T17:05:21.785Z,3.50
2023-05-11T17:07:50.145Z,3.10
2023-05-11T17:10:18.957Z,2.80
2023-05-11T17:12:47.517Z,3.00
2023-05-11T17:15:15.787Z,2.90
2023-05-11T17:17:44.324Z,3.00
2023-05-11T17:20:13.271Z,2.70
2023-05-11T17:22:41.641Z,2.90
2023-05-11T17:25:10.258Z,4.50
2023-05-11T17:27:38.602Z,5.10
2023-05-11T17:30:08.732Z,3.90
2023-05-11T17:32:37.730Z,3.30
2023-05-11T17:35:08.175Z,3.40
2023-05-11T17:37:36.619Z,3.50
2023-05-11T17:40:05.718Z,2.50
2023-05-11T17:42:35.009Z,2.80
2023-05-11T17:45:03.597Z,3.10
2023-05-11T17:47:32.512Z,3.40
2023-05-11T17:50:01.231Z,3.40
2023-05-11T17:52:30.065Z,3.90
2023-05-11T17:54:58.542Z,3.20
2023-05-11T17:57:28.210Z,3.30
2023-05-11T17:59:56.793Z,3.40
2023-05-11T18:02:25.393Z,3.50
2023-05-11T18:04:53.888Z,4.70
2023-05-11T18:07:22.370Z,4.20
2023-05-11T18:09:50.642Z,4.10
2023-05-11T18:12:19.334Z,4.30
2023-05-11T18:14:48.015Z,3.90
2023-05-11T18:17:17.107Z,6.60
2023-05-11T18:19:45.491Z,5.50
2023-05-11T18:22:13.963Z,4.20
2023-05-11T18:24:42.139Z,3.70
2023-05-11T18:27:10.409Z,5.10
2023-05-11T18:29:38.898Z,4.90
2023-05-11T18:32:07.202Z,5.80
2023-05-11T18:34:36.362Z,5.60
2023-05-11T18:37:04.847Z,11.20
2023-05-11T18:39:33.123Z,16.50
2023-05-11T18:42:02.012Z,10.30
2023-05-11T18:44:30.705Z,9.90
2023-05-11T18:46:59.432Z,9.60
2023-05-11T18:49:28.370Z,7.20
2023-05-11T18:51:56.747Z,7.10
2023-05-11T18:54:25.023Z,7.50
2023-05-11T18:56:54.324Z,8.30
2023-05-11T18:59:22.703Z,10.30
2023-05-11T19:01:51.873Z,16.30
2023-05-11T19:04:22.219Z,13.20
2023-05-11T19:06:50.723Z,10.70
2023-05-11T19:09:19.693Z,11.70
2023-05-11T19:11:48.476Z,10.80
2023-05-11T19:14:16.771Z,14.40
2023-05-11T19:16:45.192Z,9.60
2023-05-11T19:19:13.648Z,9.50
2023-05-11T19:21:43.936Z,9.20
2023-05-11T19:24:12.513Z,10.40
2023-05-11T19:26:40.698Z,9.50
2023-05-11T19:29:14.201Z,9.20
2023-05-11T19:31:42.589Z,9.90
2023-05-11T19:34:11.258Z,15.70
2023-05-11T19:36:39.426Z,15.10
2023-05-11T19:39:08.408Z,12.90
2023-05-11T19:41:36.694Z,13.00
2023-05-11T19:44:05.780Z,12.10
2023-05-11T19:46:34.020Z,9.60
2023-05-11T19:49:02.838Z,11.50
2023-05-11T19:51:32.138Z,9.20
2023-05-11T19:54:00.324Z,10.70
2023-05-11T19:56:28.794Z,9.30
2023-05-11T19:58:57.276Z,8.30
2023-05-11T20:01:25.920Z,6.90
2023-05-11T20:03:54.444Z,8.70
2023-05-11T20:06:22.719Z,7.20
2023-05-11T20:08:52.014Z,5.50
2023-05-11T20:11:22.245Z,5.50
2023-05-11T20:13:51.434Z,4.50
2023-05-11T20:16:19.647Z,4.10
2023-05-11T20:18:48.358Z,4.90
2023-05-11T20:21:16.771Z,5.50
2023-05-11T20:23:44.941Z,5.60
2023-05-11T20:26:13.628Z,6.00
2023-05-11T20:28:41.819Z,4.90
2023-05-11T20:31:11.270Z,4.20
2023-05-11T20:36:11.140Z,6.00
2023-05-11T20:38:39.509Z,5.80
2023-05-11T20:41:07.889Z,6.20
2023-05-11T20:43:36.054Z,6.10
2023-05-11T20:46:05.745Z,6.10
2023-05-11T20:48:40.731Z,6.00
2023-05-11T20:51:10.409Z,7.20
2023-05-11T20:53:38.578Z,6.50
2023-05-11T20:56:08.544Z,6.70
2023-05-11T20:58:36.669Z,6.80
2023-05-11T21:01:04.865Z,5.30
2023-05-11T21:03:33.301Z,6.60
2023-05-11T21:06:01.496Z,5.90
2023-05-11T21:08:30.070Z,6.10
2023-05-11T21:10:58.354Z,6.30
2023-05-11T21:13:26.634Z,7.30
2023-05-11T21:15:54.757Z,6.60
2023-05-11T21:18:23.083Z,6.40
2023-05-11T21:20:51.862Z,6.80
2023-05-11T21:23:20.038Z,7.20
2023-05-11T21:25:52.874Z,6.90
2023-05-11T21:28:21.389Z,6.40
2023-05-11T21:30:50.258Z,6.60
2023-05-11T21:33:18.775Z,5.90
2023-05-11T21:35:48.067Z,6.30
2023-05-11T21:38:17.463Z,7.00
2023-05-11T21:40:52.296Z,7.00
2023-05-11T21:43:20.778Z,6.60
2023-05-11T21:45:50.705Z,6.30
2023-05-11T21:48:18.865Z,6.60
2023-05-11T21:50:52.920Z,7.00
2023-05-11T21:53:22.282Z,6.50
2023-05-11T21:55:51.074Z,6.60
2023-05-11T21:58:19.548Z,6.70
2023-05-11T22:00:48.220Z,6.50
2023-05-11T22:03:16.694Z,6.40
2023-05-11T22:05:45.091Z,6.40
2023-05-11T22:08:15.563Z,6.70
2023-05-11T22:10:44.309Z,6.30
2023-05-11T22:13:12.469Z,6.00
2023-05-11T22:15:41.583Z,6.20
2023-05-11T22:18:09.909Z,7.30
2023-05-11T22:20:38.441Z,6.20
2023-05-11T22:23:07.011Z,6.50
2023-05-11T22:25:35.306Z,6.40
2023-05-11T22:28:04.070Z,6.60
2023-05-11T22:30:32.342Z,6.60
2023-05-11T22:33:01.087Z,7.00
2023-05-11T22:35:30.159Z,6.80
2023-05-11T22:37:59.006Z,6.50
2023-05-11T22:40:27.595Z,6.50
2023-05-11T22:42:56.387Z,6.50
2023-05-11T22:45:24.562Z,6.90
2023-05-11T22:47:53.250Z,6.10
2023-05-11T22:50:21.982Z,7.10
2023-05-11T22:52:50.400Z,7.10
2023-05-11T22:55:19.181Z,7.10
2023-05-11T22:57:47.358Z,7.40
2023-05-11T23:00:16.448Z,7.30
2023-05-11T23:02:44.662Z,7.00
2023-05-11T23:05:13.113Z,7.00
2023-05-11T23:07:41.280Z,7.80
2023-05-11T23:10:10.175Z,7.30
2023-05-11T23:12:38.346Z,7.20
2023-05-11T23:15:07.677Z,6.90
2023-05-11T23:17:36.229Z,6.90
2023-05-11T23:20:05.881Z,6.50
2023-05-11T23:22:34.012Z,7.90
2023-05-11T23:25:02.790Z,7.50
2023-05-11T23:27:31.087Z,7.20
2023-05-11T23:29:59.240Z,7.50
2023-05-11T23:32:27.650Z,7.30
2023-05-11T23:34:56.098Z,7.50
2023-05-11T23:37:24.575Z,7.30
2023-05-11T23:39:52.953Z,7.00
2023-05-11T23:42:21.433Z,7.00
2023-05-11T23:44:49.634Z,7.10
2023-05-11T23:47:18.142Z,6.90
2023-05-11T23:49:46.666Z,7.40
2023-05-11T23:52:15.172Z,6.70
2023-05-11T23:54:43.627Z,7.10
2023-05-11T23:57:11.907Z,6.80
2023-05-11T23:59:40.486Z,7.60
